createdAt,value
2022-11-19T00:01:29.955Z,1.90
2022-11-19T00:03:56.703Z,1.70
2022-11-19T00:06:26.074Z,1.92
2022-11-19T00:08:52.832Z,2.70
2022-11-19T00:11:43.633Z,2.15
2022-11-19T00:14:16.356Z,4.50
2022-11-19T00:16:46.636Z,5.53
2022-11-19T00:19:13.455Z,3.55
2022-11-19T00:21:40.269Z,1.50
2022-11-19T00:24:08.061Z,5.03
2022-11-19T00:26:34.837Z,2.75
2022-11-19T00:29:04.203Z,4.28
2022-11-19T00:31:31.593Z,6.03
2022-11-19T00:33:58.033Z,2.00
2022-11-19T00:36:24.642Z,2.25
2022-11-19T00:38:51.155Z,2.40
2022-11-19T00:41:17.652Z,2.85
2022-11-19T00:43:52.449Z,3.85
2022-11-19T00:46:37.086Z,3.35
2022-11-19T00:49:04.224Z,2.38
2022-11-19T00:51:31.083Z,4.68
2022-11-19T00:53:58.008Z,3.00
2022-11-19T00:56:26.319Z,3.80
2022-11-19T00:58:53.885Z,2.47
2022-11-19T01:01:22.353Z,3.38
2022-11-19T01:03:49.341Z,3.13
2022-11-19T01:06:19.586Z,3.13
2022-11-19T01:08:49.991Z,1.77
2022-11-19T01:11:21.787Z,1.85
2022-11-19T01:13:48.651Z,2.53
2022-11-19T01:16:23.298Z,1.67
2022-11-19T01:18:50.887Z,3.65
2022-11-19T01:21:18.888Z,4.80
2022-11-19T01:23:46.201Z,2.10
2022-11-19T01:26:14.292Z,2.90
2022-11-19T01:28:41.176Z,4.43
2022-11-19T01:31:09.367Z,2.33
2022-11-19T01:33:36.693Z,4.90
2022-11-19T01:36:06.277Z,2.67
2022-11-19T01:38:33.586Z,3.17
2022-11-19T01:41:00.897Z,2.13
2022-11-19T01:43:48.835Z,3.42
2022-11-19T01:46:21.795Z,4.15
2022-11-19T01:48:54.017Z,1.88
2022-11-19T01:51:23.391Z,1.85
2022-11-19T01:53:53.427Z,1.77
2022-11-19T01:56:21.494Z,3.08
2022-11-19T01:58:53.097Z,2.53
2022-11-19T02:01:20.178Z,3.25
2022-11-19T02:03:48.044Z,1.52
2022-11-19T02:06:14.556Z,1.40
2022-11-19T02:08:50.597Z,1.45
2022-11-19T02:11:41.454Z,1.45
2022-11-19T02:14:34.351Z,1.63
2022-11-19T02:17:00.725Z,1.67
2022-11-19T02:19:45.826Z,1.98
2022-11-19T02:22:29.545Z,4.43
2022-11-19T02:25:19.566Z,2.85
2022-11-19T02:28:14.156Z,2.50
2022-11-19T02:30:48.972Z,3.83
2022-11-19T02:33:28.153Z,2.17
2022-11-19T02:36:11.033Z,2.97
2022-11-19T02:38:40.513Z,2.85
2022-11-19T02:41:34.250Z,6.63
2022-11-19T02:44:58.841Z,1.33
2022-11-19T02:47:36.037Z,1.30
2022-11-19T02:50:13.216Z,4.10
2022-11-19T02:52:44.385Z,2.17
2022-11-19T02:55:15.551Z,2.95
2022-11-19T02:57:54.045Z,2.67
2022-11-19T03:00:39.562Z,3.80
2022-11-19T03:03:37.970Z,2.30
2022-11-19T03:06:12.191Z,3.05
2022-11-19T03:08:38.942Z,2.78
2022-11-19T03:11:07.681Z,3.17
2022-11-19T03:14:07.447Z,2.05
2022-11-19T03:16:42.984Z,2.92
2022-11-19T03:19:32.564Z,4.05
2022-11-19T03:22:12.777Z,2.42
2022-11-19T03:24:50.612Z,2.72
2022-11-19T03:27:41.142Z,1.95
2022-11-19T03:30:09.060Z,5.03
2022-11-19T03:32:42.931Z,1.30
2022-11-19T03:35:15.968Z,3.58
2022-11-19T03:37:44.954Z,3.25
2022-11-19T03:40:15.291Z,2.58
2022-11-19T03:42:44.548Z,2.90
2022-11-19T03:45:16.284Z,3.22
2022-11-19T03:47:45.134Z,2.55
2022-11-19T03:50:30.380Z,2.88
2022-11-19T03:53:03.899Z,3.60
2022-11-19T03:55:39.098Z,4.28
2022-11-19T03:58:07.760Z,4.63
2022-11-19T04:00:34.275Z,3.13
2022-11-19T04:03:00.818Z,2.95
2022-11-19T04:05:27.235Z,4.45
2022-11-19T04:07:53.664Z,3.60
2022-11-19T04:10:22.410Z,5.22
2022-11-19T04:12:48.869Z,4.47
2022-11-19T04:15:15.932Z,3.10
2022-11-19T04:17:42.406Z,2.55
2022-11-19T04:20:09.979Z,4.43
2022-11-19T04:22:36.454Z,4.55
2022-11-19T04:25:02.979Z,7.10
2022-11-19T04:27:29.382Z,5.20
2022-11-19T04:29:55.883Z,3.47
2022-11-19T04:32:22.327Z,2.85
2022-11-19T04:34:48.768Z,2.53
2022-11-19T04:37:15.154Z,5.50
2022-11-19T04:39:41.587Z,6.07
2022-11-19T04:42:07.997Z,5.20
2022-11-19T04:44:34.418Z,3.03
2022-11-19T04:47:00.975Z,2.95
2022-11-19T04:49:27.407Z,3.90
2022-11-19T04:51:54.025Z,6.28
2022-11-19T04:54:20.458Z,4.30
2022-11-19T04:56:49.345Z,3.88
2022-11-19T04:59:15.766Z,8.55
2022-11-19T05:01:42.288Z,7.47
2022-11-19T05:04:09.955Z,4.20
2022-11-19T05:06:36.515Z,3.00
2022-11-19T05:09:02.963Z,2.75
2022-11-19T05:11:29.399Z,3.42
2022-11-19T05:13:55.931Z,3.17
2022-11-19T05:16:22.382Z,2.83
2022-11-19T05:18:48.859Z,3.42
2022-11-19T05:21:17.991Z,5.38
2022-11-19T05:23:44.387Z,4.10
2022-11-19T05:26:10.789Z,4.00
2022-11-19T05:28:39.687Z,4.50
2022-11-19T05:31:07.823Z,9.25
2022-11-19T05:33:34.826Z,3.20
2022-11-19T05:36:06.278Z,3.42
2022-11-19T05:38:32.826Z,2.47
2022-11-19T05:40:59.211Z,4.00
2022-11-19T05:43:25.627Z,2.95
2022-11-19T05:45:52.086Z,4.32
2022-11-19T05:48:18.489Z,1.52
2022-11-19T05:50:44.968Z,4.28
2022-11-19T05:53:11.484Z,2.53
2022-11-19T05:55:38.022Z,3.40
2022-11-19T05:58:06.707Z,2.70
2022-11-19T06:00:33.143Z,6.18
2022-11-19T06:02:59.615Z,3.92
2022-11-19T06:05:26.149Z,4.30
2022-11-19T06:07:52.605Z,9.38
2022-11-19T06:10:18.995Z,7.60
2022-11-19T06:12:46.174Z,5.28
2022-11-19T06:15:13.687Z,6.63
2022-11-19T06:17:40.305Z,4.30
2022-11-19T06:20:11.127Z,4.28
2022-11-19T06:22:38.457Z,3.78
2022-11-19T06:25:08.188Z,6.45
2022-11-19T06:27:34.933Z,4.95
2022-11-19T06:30:01.533Z,4.60
2022-11-19T06:32:30.080Z,3.03
2022-11-19T06:34:59.027Z,2.38
2022-11-19T06:37:25.516Z,4.82
2022-11-19T06:39:52.015Z,6.47
2022-11-19T06:42:37.020Z,7.50
2022-11-19T06:45:11.818Z,7.53
2022-11-19T06:47:39.598Z,5.97
2022-11-19T06:50:07.767Z,3.40
2022-11-19T06:52:34.503Z,3.00
2022-11-19T06:55:00.946Z,2.83
2022-11-19T06:57:27.544Z,2.97
2022-11-19T06:59:53.978Z,2.63
2022-11-19T07:02:21.743Z,2.88
2022-11-19T07:04:48.724Z,4.00
2022-11-19T07:07:15.238Z,1.60
2022-11-19T07:09:41.709Z,2.22
2022-11-19T07:12:08.763Z,3.90
2022-11-19T07:14:35.861Z,3.20
2022-11-19T07:17:03.058Z,2.00
2022-11-19T07:19:29.510Z,2.60
2022-11-19T07:21:55.988Z,0.82
2022-11-19T07:24:22.453Z,3.45
2022-11-19T07:26:48.943Z,4.82
2022-11-19T07:29:16.052Z,3.95
2022-11-19T07:31:42.623Z,3.03
2022-11-19T07:34:10.839Z,1.77
2022-11-19T07:36:38.130Z,3.10
2022-11-19T07:39:05.513Z,2.03
2022-11-19T07:41:50.551Z,2.42
2022-11-19T07:44:17.084Z,2.22
2022-11-19T07:46:43.514Z,2.42
2022-11-19T07:49:09.981Z,2.17
2022-11-19T07:51:36.452Z,1.90
2022-11-19T07:54:05.621Z,1.58
2022-11-19T07:56:34.449Z,2.05
2022-11-19T07:59:01.194Z,1.67
2022-11-19T08:01:27.758Z,2.13
2022-11-19T08:03:56.836Z,2.40
2022-11-19T08:06:27.814Z,1.98
2022-11-19T08:08:56.223Z,3.25
2022-11-19T08:11:23.315Z,6.88
2022-11-19T08:13:49.742Z,11.88
2022-11-19T08:16:35.839Z,15.35
2022-11-19T08:19:03.741Z,4.15
2022-11-19T08:21:30.141Z,3.72
2022-11-19T08:23:56.714Z,1.85
2022-11-19T08:26:23.177Z,2.88
2022-11-19T08:28:49.709Z,2.85
2022-11-19T08:31:16.405Z,6.03
2022-11-19T08:33:42.853Z,5.55
2022-11-19T08:36:09.486Z,4.72
2022-11-19T08:38:38.959Z,5.57
2022-11-19T08:41:24.112Z,5.88
2022-11-19T08:43:50.546Z,6.43
2022-11-19T08:46:16.997Z,15.02
2022-11-19T08:48:43.463Z,5.82
2022-11-19T08:51:14.814Z,4.88
2022-11-19T08:53:41.249Z,3.30
2022-11-19T08:56:13.974Z,4.32
2022-11-19T08:58:44.458Z,4.30
2022-11-19T09:01:12.815Z,5.07
2022-11-19T09:03:39.315Z,4.07
2022-11-19T09:06:06.452Z,4.22
2022-11-19T09:08:33.610Z,4.85
2022-11-19T09:11:00.608Z,4.45
2022-11-19T09:13:27.254Z,4.82
2022-11-19T09:15:53.735Z,4.65
2022-11-19T09:18:20.377Z,8.55
2022-11-19T09:20:46.869Z,21.55
2022-11-19T09:23:13.727Z,16.40
2022-11-19T09:25:40.230Z,8.20
2022-11-19T09:28:06.699Z,35.95
2022-11-19T09:30:35.334Z,23.42
2022-11-19T09:33:04.271Z,10.93
2022-11-19T09:35:30.733Z,9.35
2022-11-19T09:37:57.211Z,6.28
2022-11-19T09:40:23.700Z,7.70
2022-11-19T09:43:19.443Z,5.75
2022-11-19T09:45:53.548Z,6.60
2022-11-19T09:48:32.510Z,8.70
2022-11-19T09:51:04.455Z,4.15
2022-11-19T09:53:40.106Z,4.60
2022-11-19T09:56:06.892Z,4.68
2022-11-19T09:58:42.707Z,3.28
2022-11-19T10:01:17.705Z,4.13
2022-11-19T10:03:50.518Z,3.42
2022-11-19T10:07:06.496Z,4.78
2022-11-19T10:09:42.085Z,2.97
2022-11-19T10:12:56.798Z,3.63
2022-11-19T10:15:41.417Z,3.38
2022-11-19T10:18:21.289Z,3.42
2022-11-19T10:20:53.698Z,4.22
2022-11-19T10:23:52.779Z,4.50
2022-11-19T10:26:31.233Z,3.50
2022-11-19T10:28:58.571Z,4.40
2022-11-19T10:31:38.924Z,2.08
2022-11-19T10:34:18.016Z,2.00
2022-11-19T10:36:55.922Z,3.38
2022-11-19T10:39:38.284Z,1.65
2022-11-19T10:42:25.505Z,1.65
2022-11-19T10:45:07.279Z,1.10
2022-11-19T10:47:33.696Z,2.13
2022-11-19T10:50:00.298Z,2.47
2022-11-19T10:52:46.294Z,2.53
2022-11-19T10:55:35.788Z,1.98
2022-11-19T10:58:11.325Z,3.53
2022-11-19T11:00:39.930Z,7.18
2022-11-19T11:03:15.540Z,36.67
2022-11-19T11:06:06.658Z,3.10
2022-11-19T11:08:33.909Z,58.70
2022-11-19T11:11:01.264Z,3.78
2022-11-19T11:13:57.373Z,1.88
2022-11-19T11:16:45.912Z,2.85
2022-11-19T11:19:21.702Z,1.40
2022-11-19T11:21:55.499Z,3.53
2022-11-19T11:24:32.668Z,3.58
2022-11-19T11:27:24.590Z,2.28
2022-11-19T11:30:15.579Z,1.45
2022-11-19T11:32:42.870Z,1.55
2022-11-19T11:35:33.034Z,2.13
2022-11-19T11:38:01.363Z,3.67
2022-11-19T11:40:28.977Z,3.05
2022-11-19T11:42:56.122Z,2.55
2022-11-19T11:45:36.173Z,1.60
2022-11-19T11:48:08.372Z,2.47
2022-11-19T11:50:37.212Z,1.35
2022-11-19T11:53:10.211Z,1.10
2022-11-19T11:55:38.658Z,1.33
2022-11-19T11:58:27.250Z,1.98
2022-11-19T12:00:56.077Z,5.03
2022-11-19T12:03:23.025Z,1.45
2022-11-19T12:06:15.468Z,3.80
2022-11-19T12:09:22.264Z,3.33
2022-11-19T12:12:06.971Z,4.97
2022-11-19T12:14:36.405Z,2.42
2022-11-19T12:17:18.151Z,2.63
2022-11-19T12:20:11.331Z,4.95
2022-11-19T12:22:53.663Z,2.85
2022-11-19T12:25:30.916Z,2.80
2022-11-19T12:27:57.389Z,3.42
2022-11-19T12:30:30.519Z,3.35
2022-11-19T12:33:12.171Z,5.10
2022-11-19T12:35:41.711Z,5.65
2022-11-19T12:38:50.212Z,4.90
2022-11-19T12:41:37.180Z,5.32
2022-11-19T12:44:20.524Z,5.10
2022-11-19T12:46:58.235Z,4.28
2022-11-19T12:49:56.206Z,5.97
2022-11-19T12:52:41.796Z,7.40
2022-11-19T12:55:29.549Z,6.63
2022-11-19T12:58:26.351Z,10.88
2022-11-19T13:01:04.332Z,10.30
2022-11-19T13:03:43.061Z,5.50
2022-11-19T13:06:18.239Z,3.38
2022-11-19T13:09:20.973Z,2.75
2022-11-19T13:12:01.471Z,4.88
2022-11-19T13:14:32.923Z,3.20
2022-11-19T13:17:01.203Z,4.15
2022-11-19T13:19:32.559Z,4.97
2022-11-19T13:22:06.238Z,3.83
2022-11-19T13:24:46.757Z,3.30
2022-11-19T13:27:22.795Z,4.00
2022-11-19T13:30:23.690Z,3.95
2022-11-19T13:33:15.990Z,3.70
2022-11-19T13:35:47.839Z,4.13
2022-11-19T13:38:43.761Z,2.50
2022-11-19T13:41:20.351Z,5.50
2022-11-19T13:44:05.392Z,4.30
2022-11-19T13:46:40.837Z,3.22
2022-11-19T13:49:19.432Z,7.35
2022-11-19T13:51:50.793Z,6.20
2022-11-19T13:54:28.730Z,6.03
2022-11-19T13:56:58.189Z,5.30
2022-11-19T13:59:39.398Z,3.80
2022-11-19T14:02:27.799Z,5.13
2022-11-19T14:05:31.188Z,3.40
2022-11-19T14:08:18.797Z,5.30
2022-11-19T14:11:19.799Z,4.25
2022-11-19T14:13:54.297Z,4.85
2022-11-19T14:16:59.969Z,4.13
2022-11-19T14:19:45.268Z,5.25
2022-11-19T14:22:59.506Z,4.95
2022-11-19T14:26:06.448Z,10.27
2022-11-19T14:28:52.909Z,5.82
2022-11-19T14:31:20.763Z,5.70
2022-11-19T14:33:47.208Z,5.20
2022-11-19T14:36:25.452Z,4.20
2022-11-19T14:39:00.295Z,5.15
2022-11-19T14:41:34.646Z,3.60
2022-11-19T14:44:33.740Z,3.38
2022-11-19T14:47:32.920Z,3.85
2022-11-19T14:50:02.579Z,4.80
2022-11-19T14:52:35.844Z,3.85
2022-11-19T14:55:13.935Z,4.97
2022-11-19T14:57:44.638Z,3.25
2022-11-19T15:00:14.292Z,2.92
2022-11-19T15:02:51.869Z,3.25
2022-11-19T15:05:18.449Z,4.22
2022-11-19T15:07:54.316Z,3.25
2022-11-19T15:10:27.780Z,2.85
2022-11-19T15:13:30.984Z,4.07
2022-11-19T15:16:05.694Z,7.05
2022-11-19T15:18:41.449Z,3.50
2022-11-19T15:21:35.714Z,3.80
2022-11-19T15:24:37.744Z,3.83
2022-11-19T15:27:23.368Z,3.30
2022-11-19T15:30:14.819Z,4.97
2022-11-19T15:33:12.269Z,5.15
2022-11-19T15:36:00.340Z,3.15
2022-11-19T15:38:38.474Z,3.72
2022-11-19T15:41:12.575Z,4.53
2022-11-19T15:43:52.925Z,4.25
2022-11-19T15:46:47.874Z,3.80
2022-11-19T15:49:21.446Z,22.33
2022-11-19T15:54:34.877Z,11.15
2022-11-19T15:57:14.589Z,6.45
2022-11-19T15:59:42.365Z,12.25
2022-11-19T16:02:20.430Z,12.02
2022-11-19T16:04:50.538Z,11.30
2022-11-19T16:07:24.676Z,9.77
2022-11-19T16:09:51.302Z,11.90
2022-11-19T16:12:42.529Z,13.93
2022-11-19T16:15:42.646Z,13.57
2022-11-19T16:18:14.179Z,14.93
2022-11-19T16:20:44.313Z,14.80
2022-11-19T16:23:18.181Z,12.75
2022-11-19T16:25:47.597Z,14.90
2022-11-19T16:28:18.496Z,15.48
2022-11-19T16:30:49.634Z,14.55
2022-11-19T16:33:24.951Z,16.05
2022-11-19T16:35:53.775Z,14.50
2022-11-19T16:38:28.112Z,19.98
2022-11-19T16:41:15.340Z,39.35
2022-11-19T16:43:48.858Z,42.78
2022-11-19T16:46:22.763Z,80.38
2022-11-19T16:48:49.207Z,30.20
2022-11-19T16:51:24.909Z,22.33
2022-11-19T16:53:51.405Z,18.90
2022-11-19T16:56:18.629Z,29.35
2022-11-19T16:58:46.214Z,34.53
2022-11-19T17:01:18.764Z,27.95
2022-11-19T17:03:45.473Z,31.15
2022-11-19T17:06:25.784Z,36.28
2022-11-19T17:09:01.075Z,21.90
2022-11-19T17:12:09.747Z,30.17
2022-11-19T17:14:36.343Z,42.70
2022-11-19T17:17:03.865Z,25.27
2022-11-19T17:19:37.296Z,25.75
2022-11-19T17:22:07.260Z,26.10
2022-11-19T17:24:43.487Z,63.22
2022-11-19T17:27:55.072Z,45.15
2022-11-19T17:30:26.917Z,65.90
2022-11-19T17:32:59.887Z,69.28
2022-11-19T17:35:38.669Z,46.28
2022-11-19T17:38:19.530Z,34.72
2022-11-19T17:40:56.517Z,31.00
2022-11-19T17:43:50.274Z,28.48
2022-11-19T17:46:20.650Z,31.08
2022-11-19T17:48:48.477Z,49.42
2022-11-19T17:51:24.417Z,41.25
2022-11-19T17:53:52.417Z,35.03
2022-11-19T17:56:23.396Z,28.13
2022-11-19T17:58:49.850Z,28.40
2022-11-19T18:01:20.168Z,29.40
2022-11-19T18:03:47.320Z,30.58
2022-11-19T18:06:17.797Z,28.85
2022-11-19T18:08:44.897Z,30.27
2022-11-19T18:11:23.119Z,33.38
2022-11-19T18:13:52.314Z,30.85
2022-11-19T18:16:24.480Z,33.53
2022-11-19T18:18:51.626Z,34.33
2022-11-19T18:21:20.728Z,31.88
2022-11-19T18:23:51.057Z,36.22
2022-11-19T18:26:22.371Z,29.75
2022-11-19T18:28:49.445Z,30.85
2022-11-19T18:31:24.615Z,38.85
2022-11-19T18:33:53.556Z,35.17
2022-11-19T18:36:21.519Z,31.63
2022-11-19T18:38:48.474Z,35.47
2022-11-19T18:41:19.065Z,33.83
2022-11-19T18:44:04.900Z,34.90
2022-11-19T18:46:31.666Z,33.83
2022-11-19T18:48:58.150Z,30.33
2022-11-19T18:51:29.448Z,31.83
2022-11-19T18:53:56.237Z,29.42
2022-11-19T18:56:23.277Z,29.67
2022-11-19T18:58:52.521Z,30.45
2022-11-19T19:01:19.096Z,31.80
2022-11-19T19:03:45.753Z,31.70
2022-11-19T19:06:12.239Z,33.10
2022-11-19T19:08:39.055Z,35.00
2022-11-19T19:11:26.278Z,33.13
2022-11-19T19:13:53.895Z,35.05
2022-11-19T19:16:20.693Z,35.38
2022-11-19T19:18:47.468Z,35.95
2022-11-19T19:21:17.734Z,40.15
2022-11-19T19:23:44.696Z,38.38
2022-11-19T19:26:12.817Z,39.97
2022-11-19T19:28:40.073Z,39.60
2022-11-19T19:31:07.469Z,35.67
2022-11-19T19:33:34.349Z,36.17
2022-11-19T19:36:05.286Z,37.50
2022-11-19T19:38:32.377Z,38.60
2022-11-19T19:41:07.635Z,35.30
2022-11-19T19:43:34.526Z,33.75
2022-11-19T19:46:05.787Z,38.42
2022-11-19T19:48:32.595Z,32.60
2022-11-19T19:50:59.179Z,30.13
2022-11-19T19:53:26.005Z,27.75
2022-11-19T19:55:52.999Z,30.17
2022-11-19T19:58:22.718Z,32.17
2022-11-19T20:00:54.265Z,37.28
2022-11-19T20:03:25.834Z,36.88
2022-11-19T20:05:52.573Z,28.55
2022-11-19T20:08:19.282Z,26.70
2022-11-19T20:10:46.071Z,27.98
2022-11-19T20:13:27.895Z,27.38
2022-11-19T20:15:59.720Z,25.05
2022-11-19T20:18:27.198Z,26.05
2022-11-19T20:20:59.197Z,26.45
2022-11-19T20:23:29.083Z,29.42
2022-11-19T20:25:59.889Z,25.27
2022-11-19T20:28:30.678Z,27.90
2022-11-19T20:31:09.466Z,24.73
2022-11-19T20:33:36.995Z,25.25
2022-11-19T20:36:05.075Z,27.05
2022-11-19T20:38:32.190Z,26.13
2022-11-19T20:41:01.033Z,33.45
2022-11-19T20:43:52.613Z,32.80
2022-11-19T20:46:21.961Z,34.60
2022-11-19T20:48:53.467Z,33.35
2022-11-19T20:51:22.322Z,32.33
2022-11-19T20:53:49.905Z,33.90
2022-11-19T20:56:16.803Z,34.53
2022-11-19T20:58:44.130Z,28.30
2022-11-19T21:01:10.784Z,29.52
2022-11-19T21:03:37.678Z,31.15
2022-11-19T21:06:06.730Z,35.75
2022-11-19T21:08:37.183Z,35.88
2022-11-19T21:11:07.240Z,34.20
2022-11-19T21:13:34.055Z,42.15
2022-11-19T21:16:05.839Z,33.30
2022-11-19T21:18:37.075Z,35.55
2022-11-19T21:21:06.997Z,29.42
2022-11-19T21:23:34.685Z,26.27
2022-11-19T21:26:07.079Z,38.05
2022-11-19T21:28:34.558Z,39.15
2022-11-19T21:31:02.134Z,29.45
2022-11-19T21:33:31.160Z,30.65
2022-11-19T21:35:59.849Z,29.58
2022-11-19T21:38:28.995Z,29.90
2022-11-19T21:40:58.370Z,25.30
2022-11-19T21:43:26.128Z,26.58
2022-11-19T21:45:57.514Z,28.20
2022-11-19T21:48:25.232Z,24.88
2022-11-19T21:50:52.755Z,33.30
2022-11-19T21:53:22.275Z,33.08
2022-11-19T21:55:49.534Z,29.38
2022-11-19T21:58:16.965Z,25.10
2022-11-19T22:00:46.953Z,26.67
2022-11-19T22:03:14.470Z,26.08
2022-11-19T22:05:42.305Z,24.38
2022-11-19T22:08:09.193Z,25.45
2022-11-19T22:10:35.984Z,24.08
2022-11-19T22:13:02.533Z,20.95
2022-11-19T22:15:29.343Z,24.13
2022-11-19T22:17:56.041Z,23.00
2022-11-19T22:20:25.481Z,35.63
2022-11-19T22:22:52.353Z,33.67
2022-11-19T22:25:19.198Z,27.67
2022-11-19T22:27:45.901Z,30.60
2022-11-19T22:30:12.878Z,82.45
2022-11-19T22:32:39.637Z,43.65
2022-11-19T22:35:07.036Z,27.25
2022-11-19T22:37:34.035Z,26.27
2022-11-19T22:40:00.754Z,28.13
2022-11-19T22:42:27.437Z,36.75
2022-11-19T22:44:54.106Z,25.88
2022-11-19T22:47:23.404Z,23.83
2022-11-19T22:49:52.460Z,23.13
2022-11-19T22:52:19.310Z,22.30
2022-11-19T22:54:46.143Z,24.60
2022-11-19T22:57:12.813Z,28.05
2022-11-19T22:59:39.385Z,31.27
2022-11-19T23:02:10.836Z,27.17
2022-11-19T23:04:37.647Z,23.88
2022-11-19T23:07:04.454Z,22.85
2022-11-19T23:09:31.086Z,21.13
2022-11-19T23:12:16.448Z,20.17
2022-11-19T23:14:43.220Z,21.67
2022-11-19T23:17:10.012Z,20.00
2022-11-19T23:19:37.937Z,19.83
2022-11-19T23:22:05.013Z,24.08
2022-11-19T23:24:31.713Z,25.67
2022-11-19T23:26:58.454Z,25.50
2022-11-19T23:29:25.262Z,24.30
2022-11-19T23:31:51.925Z,23.80
2022-11-19T23:34:18.530Z,25.58
2022-11-19T23:36:45.309Z,27.10
2022-11-19T23:39:16.723Z,24.13
2022-11-19T23:41:46.020Z,27.88
2022-11-19T23:44:15.321Z,32.63
2022-11-19T23:46:42.187Z,27.55
2022-11-19T23:49:10.548Z,26.83
2022-11-19T23:51:38.772Z,24.88
2022-11-19T23:54:06.092Z,25.30
2022-11-19T23:56:37.042Z,30.88
2022-11-19T23:59:07.999Z,30.20
